Time;durP1;ratioP1;P1;durP2;ratioP2;P2;SDS_P1;SDS_P2;PMS_P1;PMS_P2;Temp;Humidity;BMP_temperature;BMP_pressure;BME280_temperature;BME280_humidity;BME280_pressure;Samples;Min_cycle;Max_cycle;Signal;HPM_P1;HPM_P2
2022/03/23 00:02:12;;;;;;;4.70;1.77;;;;;;;2.09;50.11;95983.50;5033464;28;20079;-72
2022/03/23 00:04:39;;;;;;;5.88;1.90;;;;;;;1.88;50.94;95973.88;5033521;28;20484;-72
2022/03/23 00:07:04;;;;;;;3.72;1.80;;;;;;;1.92;50.50;95978.03;5035059;28;20357;-72
2022/03/23 00:09:30;;;;;;;3.58;1.70;;;;;;;1.79;51.49;95975.84;5036580;28;20041;-72
2022/03/23 00:11:55;;;;;;;5.55;2.15;;;;;;;1.66;51.73;95977.09;5045694;28;20484;-72
2022/03/23 00:14:21;;;;;;;6.78;2.60;;;;;;;1.61;51.22;95971.25;5029145;28;20040;-72
2022/03/23 00:16:46;;;;;;;10.25;3.92;;;;;;;1.50;50.65;95969.00;5033288;28;20045;-72
2022/03/23 00:19:11;;;;;;;5.55;3.05;;;;;;;1.61;51.36;95968.69;5044201;28;20041;-72
2022/03/23 00:21:37;;;;;;;5.05;2.45;;;;;;;1.57;50.66;95969.69;5000497;28;20091;-72
2022/03/23 00:24:03;;;;;;;7.05;2.50;;;;;;;1.52;51.14;95971.53;5037370;28;20123;-72
2022/03/23 00:26:29;;;;;;;5.05;1.85;;;;;;;1.46;50.86;95969.16;5034717;28;20029;-72
2022/03/23 00:28:54;;;;;;;4.43;2.00;;;;;;;1.44;50.81;95968.34;5016460;28;20076;-72
2022/03/23 00:31:21;;;;;;;4.85;1.83;;;;;;;1.43;49.85;95961.56;5032970;28;20029;-72
2022/03/23 00:33:48;;;;;;;4.07;1.88;;;;;;;1.52;50.68;95961.28;5016995;28;20512;-73
2022/03/23 00:36:13;;;;;;;2.97;1.50;;;;;;;1.43;49.90;95964.94;5016728;28;20025;-72
2022/03/23 00:38:39;;;;;;;4.25;1.65;;;;;;;1.34;51.81;95967.78;5032937;28;20537;-72
2022/03/23 00:41:04;;;;;;;3.08;1.58;;;;;;;1.29;51.31;95960.22;5016522;28;20032;-72
2022/03/23 00:43:30;;;;;;;4.45;1.65;;;;;;;1.24;51.12;95959.50;5016343;28;20108;-72
2022/03/23 00:45:55;;;;;;;5.80;1.80;;;;;;;1.19;51.68;95956.22;5016533;28;20538;-72
2022/03/23 00:48:21;;;;;;;2.72;1.50;;;;;;;1.30;52.82;95963.63;5016205;28;20040;-72
2022/03/23 00:50:46;;;;;;;10.43;3.45;;;;;;;1.20;52.29;95963.06;5016341;28;20033;-72
2022/03/23 00:53:12;;;;;;;7.35;3.55;;;;;;;1.02;53.36;95945.63;5034075;28;20029;-72
2022/03/23 00:55:39;;;;;;;4.93;2.70;;;;;;;1.06;54.26;95952.34;5032535;28;20029;-72
2022/03/23 00:58:05;;;;;;;4.40;1.98;;;;;;;0.98;55.47;95959.41;5016042;28;20187;-72
2022/03/23 01:00:30;;;;;;;3.85;1.60;;;;;;;0.93;53.28;95953.56;5033605;28;20033;-72
2022/03/23 01:02:56;;;;;;;5.57;1.92;;;;;;;0.86;53.91;95963.97;5033695;28;20029;-72
2022/03/23 01:05:21;;;;;;;4.38;1.55;;;;;;;0.86;53.17;95956.28;5032342;28;20099;-72
2022/03/23 01:07:47;;;;;;;7.50;3.20;;;;;;;0.89;53.49;95963.03;5038179;28;20028;-72
2022/03/23 01:10:14;;;;;;;7.28;3.08;;;;;;;0.89;53.88;95965.56;5035611;28;20040;-72
2022/03/23 01:12:44;;;;;;;7.90;2.00;;;;;;;0.86;54.17;95958.00;5035616;28;20033;-72
2022/03/23 01:15:10;;;;;;;5.53;1.60;;;;;;;0.81;54.07;95963.25;5052212;28;20483;-72
2022/03/23 01:17:36;;;;;;;4.97;1.63;;;;;;;0.67;54.04;95960.22;5027516;28;20033;-72
2022/03/23 01:20:03;;;;;;;4.47;1.67;;;;;;;0.63;53.47;95958.59;5033844;28;20055;-72
2022/03/23 01:22:28;;;;;;;3.10;1.60;;;;;;;0.71;52.97;95956.69;5018916;28;20037;-72
2022/03/23 01:24:53;;;;;;;3.67;1.60;;;;;;;0.69;53.71;95961.00;5045494;28;20056;-72
2022/03/23 01:27:19;;;;;;;4.50;2.10;;;;;;;0.64;52.45;95963.69;5034079;28;20040;-72
2022/03/23 01:29:44;;;;;;;4.53;2.05;;;;;;;0.67;52.89;95952.53;5033166;28;20036;-73
2022/03/23 01:32:10;;;;;;;3.38;1.77;;;;;;;0.69;53.26;95950.75;5031921;28;20413;-72
2022/03/23 01:34:35;;;;;;;8.07;3.05;;;;;;;0.63;53.01;95950.94;5031775;28;20021;-72
2022/03/23 01:37:01;;;;;;;7.30;3.15;;;;;;;0.61;54.46;95947.56;5001030;28;20034;-72
2022/03/23 01:39:27;;;;;;;7.35;3.35;;;;;;;0.56;53.83;95951.97;5035140;28;20025;-72
2022/03/23 01:41:52;;;;;;;5.15;1.80;;;;;;;0.53;53.72;95949.47;5031579;28;20492;-72
2022/03/23 01:44:20;;;;;;;2.60;1.50;;;;;;;0.45;54.37;95944.56;5032917;28;20484;-72
2022/03/23 01:47:18;;;;;;;4.70;2.15;;;;;;;0.55;52.43;95948.56;5015325;28;20039;-72
2022/03/23 01:49:54;;;;;;;2.78;1.50;;;;;;;0.69;54.00;95937.97;5042388;28;20046;-72
2022/03/23 01:52:21;;;;;;;4.80;1.73;;;;;;;0.59;54.40;95942.50;5015261;28;20029;-72
2022/03/23 01:54:46;;;;;;;5.18;1.70;;;;;;;0.43;55.11;95939.50;5031520;28;20110;-72
2022/03/23 01:57:17;;;;;;;4.72;1.70;;;;;;;0.27;56.01;95935.63;5031447;28;20025;-72
2022/03/23 01:59:42;;;;;;;4.85;2.40;;;;;;;0.22;56.61;95932.34;5015184;28;20033;-72
2022/03/23 02:02:08;;;;;;;4.28;1.92;;;;;;;0.36;57.18;95944.78;5031313;28;20541;-72
2022/03/23 02:04:34;;;;;;;3.00;1.55;;;;;;;0.47;53.45;95952.19;5031287;28;20033;-72
2022/03/23 02:06:59;;;;;;;3.90;1.77;;;;;;;0.18;54.43;95951.19;5015490;28;20401;-72
2022/03/23 02:09:25;;;;;;;3.95;1.90;;;;;;;0.01;57.13;95935.44;5050989;28;20033;-72
2022/03/23 02:11:52;;;;;;;4.57;2.00;;;;;;;-0.14;57.92;95949.38;5034497;28;20029;-72
2022/03/23 02:14:17;;;;;;;2.78;1.65;;;;;;;-0.18;57.38;95940.97;5034631;28;20084;-72
2022/03/23 02:16:44;;;;;;;4.38;1.90;;;;;;;0.01;56.76;95943.09;5034820;28;20380;-72
2022/03/23 02:19:10;;;;;;;5.75;1.92;;;;;;;-0.12;55.92;95939.97;5014286;28;20217;-72
2022/03/23 02:21:36;;;;;;;4.05;2.10;;;;;;;-0.27;57.30;95939.47;5014631;28;20487;-72
2022/03/23 02:24:03;;;;;;;4.75;2.10;;;;;;;-0.23;57.36;95950.44;5014430;28;20036;-74
2022/03/23 02:26:28;;;;;;;3.55;1.88;;;;;;;-0.29;57.69;95951.41;5031019;28;20559;-72
2022/03/23 02:28:54;;;;;;;4.90;2.08;;;;;;;-0.36;58.31;95938.81;4998114;28;20034;-72
2022/03/23 02:31:19;;;;;;;5.45;1.92;;;;;;;-0.24;58.49;95957.25;5036881;28;20036;-72
2022/03/23 02:33:45;;;;;;;3.75;1.60;;;;;;;-0.18;55.65;95947.78;5020293;28;20411;-72
2022/03/23 02:36:11;;;;;;;3.25;1.55;;;;;;;-0.35;56.91;95950.72;5030600;28;20492;-72
2022/03/23 02:38:37;;;;;;;4.13;1.75;;;;;;;-0.42;57.71;95951.72;5030687;28;20040;-72
2022/03/23 02:41:03;;;;;;;3.25;1.52;;;;;;;-0.46;57.83;95964.56;5030765;28;20040;-72
2022/03/23 02:43:28;;;;;;;3.00;1.67;;;;;;;-0.46;58.38;95949.22;5031775;28;20037;-72
2022/03/23 02:45:54;;;;;;;3.13;1.65;;;;;;;-0.24;55.69;95964.94;5030597;28;20024;-72
2022/03/23 02:48:19;;;;;;;3.05;1.65;;;;;;;-0.27;54.46;95959.06;5028215;28;20430;-72
2022/03/23 02:50:45;;;;;;;4.45;1.83;;;;;;;-0.42;56.22;95974.69;5033636;28;20495;-72
2022/03/23 03:02:02;;;;;;;;;;;;;;;-0.59;58.47;95970.78;5039038;28;20171;-72
2022/03/23 03:04:29;;;;;;;6.18;2.10;;;;;;;-0.70;59.74;95954.84;5051238;28;19919;-72
2022/03/23 03:06:56;;;;;;;3.55;1.70;;;;;;;-0.64;59.90;95966.66;5049754;28;20079;-72
2022/03/23 03:09:22;;;;;;;3.60;1.77;;;;;;;-0.66;58.87;95970.97;5013737;28;20038;-72
2022/03/23 03:11:47;;;;;;;3.10;1.50;;;;;;;-0.71;58.86;95958.28;5029943;28;20037;-72
2022/03/23 03:14:13;;;;;;;3.13;1.48;;;;;;;-0.71;58.67;95964.22;5031308;28;20052;-72
2022/03/23 03:16:38;;;;;;;3.65;1.70;;;;;;;-0.73;59.42;95967.69;5013631;28;20021;-72
2022/03/23 03:19:04;;;;;;;4.97;1.90;;;;;;;-0.73;59.83;95971.06;5031136;28;20503;-72
2022/03/23 03:21:30;;;;;;;4.50;1.40;;;;;;;-0.79;59.98;95973.75;5016086;28;20472;-72
2022/03/23 03:23:55;;;;;;;2.17;1.42;;;;;;;-0.73;59.36;95981.28;5051077;28;20048;-72
2022/03/23 03:26:21;;;;;;;2.72;1.52;;;;;;;-0.80;59.00;95973.78;5049793;28;20025;-72
2022/03/23 03:28:47;;;;;;;3.63;1.55;;;;;;;-0.71;59.49;95978.72;5049647;28;20491;-73
2022/03/23 03:31:13;;;;;;;4.28;1.50;;;;;;;-0.81;59.60;95975.47;5015998;28;20036;-72
2022/03/23 03:33:38;;;;;;;5.95;2.00;;;;;;;-0.85;60.37;95960.28;5049633;28;20035;-72
2022/03/23 03:36:05;;;;;;;6.22;2.88;;;;;;;-0.77;59.79;95968.63;5033242;28;20040;-72
2022/03/23 03:38:30;;;;;;;6.15;3.20;;;;;;;-0.76;58.77;95966.03;5049607;28;20039;-72
2022/03/23 03:40:56;;;;;;;5.20;3.00;;;;;;;-0.69;59.58;95971.88;5049565;28;20025;-72
2022/03/23 03:43:24;;;;;;;8.05;2.97;;;;;;;-0.74;59.27;95971.94;5049562;28;20029;-72
2022/03/23 03:45:49;;;;;;;5.13;2.90;;;;;;;-0.52;58.96;95974.91;5016944;28;20033;-72
2022/03/23 03:48:15;;;;;;;5.05;2.50;;;;;;;-0.64;59.34;95972.63;5050676;28;20033;-72
2022/03/23 03:50:41;;;;;;;3.65;1.73;;;;;;;-0.70;60.31;95965.06;5049443;28;20041;-72
2022/03/23 03:53:09;;;;;;;4.22;2.08;;;;;;;-0.72;59.18;95961.72;5050606;28;20025;-72
2022/03/23 03:55:36;;;;;;;4.10;1.70;;;;;;;-0.78;59.41;95972.91;5033416;28;20032;-72
2022/03/23 03:58:01;;;;;;;6.88;1.80;;;;;;;-0.72;59.52;95974.47;5032917;28;20044;-72
2022/03/23 04:00:27;;;;;;;3.83;1.63;;;;;;;-0.79;59.22;95965.25;5016389;28;20037;-72
2022/03/23 04:02:53;;;;;;;4.13;2.15;;;;;;;-0.72;59.81;95961.72;5032742;28;20040;-73
2022/03/23 04:05:19;;;;;;;8.57;2.67;;;;;;;-0.71;59.06;95976.16;5050740;28;20036;-72
2022/03/23 04:07:44;;;;;;;5.00;2.45;;;;;;;-0.64;58.47;95980.28;5025598;28;20034;-72
2022/03/23 04:10:09;;;;;;;4.05;1.92;;;;;;;-0.69;58.81;95974.41;5030765;28;20030;-72
2022/03/23 04:12:35;;;;;;;4.30;2.05;;;;;;;-0.68;59.06;95978.63;5030536;28;20033;-72
2022/03/23 04:15:02;;;;;;;4.88;1.80;;;;;;;-0.73;59.52;95968.50;4996641;28;20471;-72
2022/03/23 04:17:28;;;;;;;2.97;1.77;;;;;;;-0.79;59.85;95980.56;5013001;28;20041;-72
2022/03/23 04:19:53;;;;;;;4.28;2.10;;;;;;;-0.77;60.25;95983.94;5030655;28;20088;-72
2022/03/23 04:22:19;;;;;;;5.07;2.28;;;;;;;-0.74;59.19;95986.44;5029238;28;20041;-72
2022/03/23 04:24:44;;;;;;;7.38;2.85;;;;;;;-0.76;59.41;95983.06;5012811;28;20372;-72
2022/03/23 04:27:09;;;;;;;7.25;3.17;;;;;;;-0.75;59.63;95985.59;5030950;28;20450;-73
2022/03/23 04:29:35;;;;;;;5.38;3.00;;;;;;;-0.69;59.09;95988.00;5029230;28;20302;-73
2022/03/23 04:32:00;;;;;;;6.80;2.85;;;;;;;-0.64;59.96;95987.94;5030358;28;20040;-73
2022/03/23 04:34:26;;;;;;;4.65;2.33;;;;;;;-0.59;59.86;95991.22;5030355;28;20033;-73
2022/03/23 04:36:51;;;;;;;5.32;2.47;;;;;;;-0.61;59.67;95992.09;5030369;28;20025;-73
2022/03/23 04:39:16;;;;;;;5.22;2.53;;;;;;;-0.66;59.62;95987.13;4998992;28;20025;-72
2022/03/23 04:41:42;;;;;;;6.13;2.33;;;;;;;-0.54;59.59;95988.56;5029815;28;20040;-73
2022/03/23 04:44:07;;;;;;;7.10;3.05;;;;;;;-0.48;59.25;96002.03;5016404;28;20045;-73
2022/03/23 04:46:33;;;;;;;6.90;2.65;;;;;;;-0.47;59.40;95985.03;5034338;28;20037;-72
2022/03/23 04:48:58;;;;;;;4.38;2.08;;;;;;;-0.53;59.99;95978.34;5016132;28;20025;-72
2022/03/23 04:51:24;;;;;;;4.50;2.17;;;;;;;-0.47;60.08;95975.66;5016309;28;20029;-73
2022/03/23 04:53:49;;;;;;;4.95;2.33;;;;;;;-0.40;60.45;95983.19;5016155;28;20478;-73
2022/03/23 04:56:15;;;;;;;5.30;2.20;;;;;;;-0.39;60.02;95980.59;5032726;28;20407;-72
2022/03/23 04:58:41;;;;;;;5.75;1.98;;;;;;;-0.34;60.39;95983.03;5032573;28;20495;-72
2022/03/23 05:01:07;;;;;;;4.25;1.98;;;;;;;-0.30;60.21;95977.84;5016255;28;20037;-73
2022/03/23 05:03:32;;;;;;;4.13;2.20;;;;;;;-0.28;60.40;95977.78;5032444;28;20037;-73
2022/03/23 05:05:58;;;;;;;6.28;2.40;;;;;;;-0.19;59.91;95982.72;5032537;28;20041;-73
2022/03/23 05:08:23;;;;;;;5.57;2.20;;;;;;;-0.13;60.78;95980.03;5045906;28;20025;-73
2022/03/23 05:10:49;;;;;;;4.78;2.13;;;;;;;-0.14;60.40;95975.78;5052398;28;20467;-73
2022/03/23 05:13:14;;;;;;;9.93;3.33;;;;;;;-0.17;60.96;95965.63;5052210;28;20112;-72
2022/03/23 05:15:40;;;;;;;6.80;3.15;;;;;;;-0.12;61.08;95989.34;5052273;28;20044;-72
2022/03/23 05:18:05;;;;;;;6.07;2.85;;;;;;;-0.09;61.21;95978.22;5049874;28;20057;-72
2022/03/23 05:20:31;;;;;;;5.32;2.47;;;;;;;-0.10;61.54;95984.22;5016631;28;20032;-72
2022/03/23 05:22:56;;;;;;;3.00;1.95;;;;;;;-0.18;61.66;95979.28;5041896;28;20040;-73
2022/03/23 05:25:22;;;;;;;6.05;2.30;;;;;;;-0.10;61.53;95987.59;5038090;28;20034;-74
2022/03/23 05:27:48;;;;;;;5.28;2.13;;;;;;;-0.04;60.94;95987.47;5044275;28;20420;-73
2022/03/23 05:30:14;;;;;;;3.63;1.90;;;;;;;0.02;61.13;95986.47;5032387;28;20037;-72
2022/03/23 05:32:40;;;;;;;3.08;2.00;;;;;;;0.13;61.45;95991.34;5047164;28;20477;-73
2022/03/23 05:35:06;;;;;;;5.72;2.35;;;;;;;0.20;60.87;95985.22;5035346;28;20059;-73
2022/03/23 05:37:32;;;;;;;3.92;1.85;;;;;;;0.33;61.60;95993.44;5041798;28;20037;-72
2022/03/23 05:39:57;;;;;;;5.03;2.25;;;;;;;0.49;61.09;95993.91;5035092;28;20083;-73
2022/03/23 05:42:23;;;;;;;4.63;2.00;;;;;;;0.64;61.02;95988.41;5018461;28;20098;-72
2022/03/23 05:44:48;;;;;;;6.53;2.40;;;;;;;0.77;61.05;95984.66;5018516;28;20036;-73
2022/03/23 05:47:14;;;;;;;5.60;2.17;;;;;;;0.93;60.86;95981.72;5041822;28;20029;-73
2022/03/23 05:49:39;;;;;;;4.18;1.85;;;;;;;1.22;59.87;95984.31;5036661;28;20024;-73
2022/03/23 05:52:05;;;;;;;3.63;2.00;;;;;;;1.39;60.45;95993.25;5040770;28;20040;-73
2022/03/23 05:54:31;;;;;;;3.70;2.10;;;;;;;1.58;57.77;95976.47;5007635;28;20075;-72
2022/03/23 05:56:56;;;;;;;4.43;2.33;;;;;;;1.99;57.26;95989.78;5034737;28;20035;-73
2022/03/23 05:59:22;;;;;;;4.45;1.83;;;;;;;2.18;57.85;95978.06;5033884;28;20473;-72
2022/03/23 06:01:47;;;;;;;3.72;1.92;;;;;;;2.50;56.85;95983.88;5031402;28;20045;-72
2022/03/23 06:04:13;;;;;;;3.67;1.90;;;;;;;2.74;53.85;95986.56;5031442;28;20032;-73
2022/03/23 06:06:39;;;;;;;4.95;2.10;;;;;;;3.03;55.40;95985.53;5014721;28;20032;-72
2022/03/23 06:09:04;;;;;;;4.07;1.70;;;;;;;3.29;55.20;95984.66;5042903;28;20123;-72
2022/03/23 06:11:30;;;;;;;5.88;2.03;;;;;;;3.52;53.75;95976.09;5023429;28;20107;-72
2022/03/23 06:13:57;;;;;;;5.53;2.50;;;;;;;3.80;54.21;95987.03;5037537;28;20033;-73
2022/03/23 06:16:22;;;;;;;3.20;1.95;;;;;;;4.07;52.60;95983.44;5040098;28;20491;-72
2022/03/23 06:18:48;;;;;;;4.80;2.25;;;;;;;4.33;49.03;95982.44;5039005;28;20064;-72
2022/03/23 06:21:13;;;;;;;4.90;2.35;;;;;;;4.61;48.80;95984.75;5016696;28;20146;-71
2022/03/23 06:23:39;;;;;;;5.10;2.50;;;;;;;4.73;48.20;95978.25;5035146;28;20040;-73
2022/03/23 06:26:04;;;;;;;5.93;2.78;;;;;;;4.87;47.63;95986.25;5030697;28;20044;-74
2022/03/23 06:28:30;;;;;;;9.48;5.35;;;;;;;4.98;48.24;95980.66;5032252;28;20037;-72
2022/03/23 06:30:57;;;;;;;6.60;3.65;;;;;;;5.22;47.42;95974.44;5048630;28;20033;-75
2022/03/23 06:33:23;;;;;;;11.15;5.10;;;;;;;5.35;47.57;95970.44;5040451;28;20116;-78
2022/03/23 06:35:48;;;;;;;15.13;4.75;;;;;;;5.45;46.52;95977.75;5050446;28;20033;-70
2022/03/23 06:38:14;;;;;;;16.63;5.80;;;;;;;5.61;45.63;95986.50;5050223;28;20033;-69
2022/03/23 06:40:39;;;;;;;11.95;4.35;;;;;;;5.64;45.20;95978.63;5050402;28;20080;-73
2022/03/23 06:43:05;;;;;;;7.80;4.22;;;;;;;6.01;43.88;95971.81;5038358;28;20553;-72
2022/03/23 06:45:30;;;;;;;9.05;4.60;;;;;;;5.94;44.09;95986.75;5047542;28;20040;-73
2022/03/23 06:47:56;;;;;;;9.27;5.53;;;;;;;5.93;44.28;95979.03;5025817;28;20045;-73
2022/03/23 06:50:21;;;;;;;10.20;5.53;;;;;;;5.94;44.23;95967.84;5032535;28;20033;-73
2022/03/23 06:52:47;;;;;;;7.22;4.30;;;;;;;6.07;43.60;95981.00;5030381;28;20092;-73
2022/03/23 06:55:12;;;;;;;7.20;3.95;;;;;;;6.19;43.53;95985.59;5032975;28;20037;-73
2022/03/23 06:57:38;;;;;;;20.75;8.88;;;;;;;6.25;43.76;95993.88;5045444;28;20029;-73
2022/03/23 07:00:12;;;;;;;12.55;4.63;;;;;;;6.28;44.19;95977.41;5014052;28;20025;-72
2022/03/23 07:02:41;;;;;;;11.80;4.97;;;;;;;6.48;43.34;95976.47;5046629;28;20052;-70
2022/03/23 07:05:08;;;;;;;17.90;7.90;;;;;;;6.47;44.09;95985.13;5033938;28;20044;-72
2022/03/23 07:07:35;;;;;;;8.93;4.75;;;;;;;6.49;43.18;95985.88;5036417;28;20034;-75
2022/03/23 07:10:01;;;;;;;14.57;8.07;;;;;;;6.61;43.65;95985.28;5021187;28;20033;-71
2022/03/23 07:12:26;;;;;;;9.13;4.22;;;;;;;6.80;43.42;95981.78;5042235;28;20521;-76
2022/03/23 07:14:51;;;;;;;12.73;7.35;;;;;;;6.81;42.73;95983.47;5007516;28;20025;-73
2022/03/23 07:17:17;;;;;;;59.67;25.38;;;;;;;6.80;42.44;95974.03;5035768;28;20061;-74
2022/03/23 07:19:43;;;;;;;11.70;5.93;;;;;;;6.90;42.13;95988.19;5038522;28;20053;-73
2022/03/23 07:22:08;;;;;;;9.90;4.07;;;;;;;6.84;41.74;95975.59;5036482;28;20029;-73
2022/03/23 07:24:34;;;;;;;9.30;5.07;;;;;;;6.90;42.19;95985.59;5019533;28;20085;-71
2022/03/23 07:27:00;;;;;;;10.10;5.90;;;;;;;7.01;42.55;95985.06;5039338;28;20033;-75
2022/03/23 07:29:25;;;;;;;8.75;4.93;;;;;;;7.13;42.17;95980.13;5038661;28;20040;-72
2022/03/23 07:31:50;;;;;;;10.65;3.83;;;;;;;7.24;42.00;95986.47;5040899;28;20485;-74
2022/03/23 07:34:19;;;;;;;8.57;3.50;;;;;;;7.28;41.71;95983.69;5042101;28;20470;-73
2022/03/23 07:36:46;;;;;;;7.70;4.22;;;;;;;7.25;41.20;95988.19;5036476;28;20091;-69
2022/03/23 07:39:15;;;;;;;7.15;3.40;;;;;;;7.44;41.77;95983.72;5023838;28;20033;-73
2022/03/23 07:41:41;;;;;;;7.72;4.00;;;;;;;7.39;41.46;95990.88;5039259;28;20048;-73
2022/03/23 07:44:06;;;;;;;7.03;3.20;;;;;;;7.53;41.49;95974.66;5037230;28;20052;-73
2022/03/23 07:46:32;;;;;;;6.60;3.40;;;;;;;7.90;40.15;95980.47;5039800;28;20483;-72
2022/03/23 07:48:57;;;;;;;7.97;3.63;;;;;;;8.01;40.13;95989.31;5037563;28;20037;-73
2022/03/23 07:51:23;;;;;;;8.65;3.78;;;;;;;7.89;40.41;95995.16;5039336;28;20045;-75
2022/03/23 07:53:48;;;;;;;7.15;3.35;;;;;;;7.98;40.27;95981.72;5045554;28;20475;-74
2022/03/23 07:56:13;;;;;;;9.68;3.42;;;;;;;8.05;39.94;95989.97;5030890;28;20493;-72
2022/03/23 07:58:39;;;;;;;9.30;3.58;;;;;;;8.01;39.51;95975.53;5045368;28;20025;-77
2022/03/23 08:01:04;;;;;;;6.90;3.80;;;;;;;8.07;39.36;95983.78;5033461;28;20155;-71
2022/03/23 08:03:30;;;;;;;7.05;3.67;;;;;;;8.02;39.91;95995.31;5041872;28;20536;-72
2022/03/23 08:05:56;;;;;;;6.30;2.95;;;;;;;8.02;39.81;95980.66;5031190;28;20123;-71
2022/03/23 08:08:22;;;;;;;8.45;3.10;;;;;;;8.23;39.60;95986.38;5043147;28;20037;-71
2022/03/23 08:10:47;;;;;;;5.93;2.72;;;;;;;7.95;38.90;95968.13;5047379;28;20511;-71
2022/03/23 08:13:13;;;;;;;34.75;4.35;;;;;;;7.61;39.32;95982.84;5046014;28;20041;-70
2022/03/23 08:15:39;;;;;;;6.28;2.50;;;;;;;7.60;38.65;95976.84;5046846;28;20025;-70
2022/03/23 08:18:04;;;;;;;7.68;2.97;;;;;;;7.57;39.15;95969.22;5032225;28;20499;-70
2022/03/23 08:20:33;;;;;;;8.00;2.67;;;;;;;7.61;38.38;95981.09;5045148;28;20035;-72
2022/03/23 08:23:02;;;;;;;6.90;2.95;;;;;;;7.55;38.75;95976.25;5046363;28;20025;-70
2022/03/23 08:25:27;;;;;;;10.45;2.75;;;;;;;7.51;38.76;95987.66;5026764;28;20393;-70
2022/03/23 08:27:56;;;;;;;6.25;3.58;;;;;;;7.49;39.49;95984.31;5033452;28;20032;-69
2022/03/23 08:30:22;;;;;;;7.03;3.03;;;;;;;7.61;39.45;95977.69;5039770;28;20578;-70
2022/03/23 08:32:47;;;;;;;10.02;3.25;;;;;;;7.76;40.14;95978.59;5046915;28;20196;-70
2022/03/23 08:35:13;;;;;;;6.55;3.15;;;;;;;7.72;38.85;95979.69;5047333;28;20564;-70
2022/03/23 08:37:41;;;;;;;6.20;2.90;;;;;;;7.87;37.59;95975.44;5046258;28;20487;-70
2022/03/23 08:40:07;;;;;;;12.55;5.25;;;;;;;7.99;38.32;95980.78;5031815;28;20029;-70
2022/03/23 08:42:32;;;;;;;5.78;3.05;;;;;;;8.14;38.34;95978.31;5049122;28;20572;-70
2022/03/23 08:44:58;;;;;;;6.13;2.88;;;;;;;8.30;37.69;95968.75;5029822;28;20028;-70
2022/03/23 08:47:23;;;;;;;7.38;3.70;;;;;;;8.43;37.00;95972.38;5052478;28;20040;-70
2022/03/23 08:49:49;;;;;;;11.77;5.60;;;;;;;8.46;37.06;95974.78;5050528;28;20474;-70
2022/03/23 08:52:15;;;;;;;6.70;3.90;;;;;;;8.52;37.80;95973.59;5044844;28;20116;-70
2022/03/23 08:54:40;;;;;;;8.05;3.80;;;;;;;8.66;38.14;95978.00;5043079;28;20103;-71
2022/03/23 08:57:05;;;;;;;7.93;3.05;;;;;;;8.68;36.43;95971.00;5044259;28;20045;-70
2022/03/23 08:59:31;;;;;;;9.57;3.30;;;;;;;8.78;36.07;95969.53;5044122;28;20029;-70
2022/03/23 09:01:56;;;;;;;7.40;3.30;;;;;;;8.73;36.07;95956.03;5045893;28;20037;-70
2022/03/23 09:04:22;;;;;;;8.25;3.40;;;;;;;8.62;36.43;95953.22;5027782;28;20033;-72
2022/03/23 09:06:48;;;;;;;8.88;3.15;;;;;;;8.66;37.36;95947.78;5015263;28;20076;-72
2022/03/23 09:09:13;;;;;;;6.70;3.05;;;;;;;8.74;35.56;95944.72;4999503;28;20068;-71
2022/03/23 09:11:41;;;;;;;12.25;4.00;;;;;;;8.76;36.79;95958.44;5034287;28;20040;-72
2022/03/23 09:14:07;;;;;;;10.68;4.07;;;;;;;8.79;37.08;95960.84;5032110;28;20514;-71
2022/03/23 09:16:32;;;;;;;8.75;4.22;;;;;;;8.77;36.00;95967.03;5033554;28;20026;-73
2022/03/23 09:18:59;;;;;;;8.00;3.10;;;;;;;8.71;35.32;95958.69;5032256;28;20049;-72
2022/03/23 09:21:25;;;;;;;10.00;3.38;;;;;;;8.72;34.51;95962.13;5032334;28;20056;-72
2022/03/23 09:23:50;;;;;;;10.60;3.72;;;;;;;8.55;35.13;95959.66;5015590;28;20487;-71
2022/03/23 09:26:16;;;;;;;9.05;3.35;;;;;;;8.63;35.25;95960.03;4999376;28;20030;-72
2022/03/23 09:28:41;;;;;;;11.45;3.45;;;;;;;8.53;35.31;95957.16;5030834;28;20420;-72
2022/03/23 09:31:06;;;;;;;8.50;3.20;;;;;;;8.48;34.77;95961.75;5032215;28;20475;-72
2022/03/23 09:33:32;;;;;;;7.60;3.17;;;;;;;8.54;34.91;95961.41;5033196;28;20033;-72
2022/03/23 09:35:57;;;;;;;8.23;3.10;;;;;;;8.44;34.56;95947.28;5033411;28;20026;-72
2022/03/23 09:38:23;;;;;;;9.60;3.22;;;;;;;8.31;35.62;95959.25;5015332;28;20041;-72
2022/03/23 09:40:51;;;;;;;7.15;2.88;;;;;;;8.35;36.18;95955.56;5015406;28;20388;-72
2022/03/23 09:43:20;;;;;;;6.00;2.90;;;;;;;8.39;35.50;95951.94;5031720;28;20400;-72
2022/03/23 09:45:48;;;;;;;6.00;3.00;;;;;;;8.33;35.74;95947.91;5031706;28;20415;-72
2022/03/23 09:48:16;;;;;;;7.03;3.20;;;;;;;8.42;35.84;95967.28;5031583;28;20038;-72
2022/03/23 09:50:43;;;;;;;5.85;2.83;;;;;;;8.36;35.34;95947.72;5015508;28;20029;-72
2022/03/23 09:53:09;;;;;;;5.85;3.10;;;;;;;8.29;33.59;95941.19;5031589;28;20175;-72
2022/03/23 09:55:35;;;;;;;11.73;3.72;;;;;;;8.26;35.77;95941.38;5032956;28;20415;-72
2022/03/23 09:58:02;;;;;;;6.47;3.35;;;;;;;8.28;35.36;95953.31;5031511;28;20033;-71
2022/03/23 10:00:33;;;;;;;6.40;3.10;;;;;;;8.33;35.56;95950.47;5031511;28;20022;-72
2022/03/23 10:02:58;;;;;;;8.90;2.90;;;;;;;8.41;35.05;95952.66;5014903;28;20033;-72
2022/03/23 10:06:01;;;;;;;7.18;3.08;;;;;;;8.42;36.00;95950.00;5032791;28;20095;-72
2022/03/23 10:08:47;;;;;;;7.80;3.45;;;;;;;8.45;34.46;95947.22;5032493;28;20072;-72
2022/03/23 10:11:51;;;;;;;7.90;3.60;;;;;;;8.24;34.78;95943.22;5032868;28;20116;-72
2022/03/23 10:14:37;;;;;;;7.15;3.63;;;;;;;8.29;35.29;95941.19;5032463;28;20043;-72
2022/03/23 10:17:22;;;;;;;5.78;3.97;;;;;;;8.31;36.42;95935.97;5032343;28;20037;-72
2022/03/23 10:19:48;;;;;;;6.82;3.67;;;;;;;8.28;36.31;95924.00;5032476;28;20124;-72
2022/03/23 10:22:14;;;;;;;5.85;3.40;;;;;;;8.45;35.31;95936.03;5014425;28;20037;-72
2022/03/23 10:24:40;;;;;;;8.80;3.22;;;;;;;8.24;36.58;95932.84;5032167;28;20063;-72
2022/03/23 10:27:17;;;;;;;7.78;3.67;;;;;;;8.20;35.92;95910.66;5014426;28;20029;-72
2022/03/23 10:29:47;;;;;;;12.93;4.68;;;;;;;8.41;36.78;95930.22;5014643;28;20047;-73
2022/03/23 10:32:13;;;;;;;6.60;3.75;;;;;;;8.40;36.80;95928.53;5014272;28;20034;-72
2022/03/23 10:34:57;;;;;;;10.43;4.22;;;;;;;8.51;36.90;95920.16;5030832;28;20451;-72
2022/03/23 10:37:23;;;;;;;7.22;3.42;;;;;;;8.56;36.58;95917.31;5030794;28;20025;-72
2022/03/23 10:39:49;;;;;;;11.73;5.15;;;;;;;8.69;37.11;95919.09;5030466;28;20033;-72
2022/03/23 10:42:16;;;;;;;7.38;3.85;;;;;;;8.83;34.98;95913.13;5014102;28;20040;-72
2022/03/23 10:44:42;;;;;;;5.85;2.80;;;;;;;8.82;32.56;95926.97;5030643;28;20160;-73
2022/03/23 10:47:07;;;;;;;4.97;2.95;;;;;;;8.82;31.83;95915.78;5030538;28;20116;-72
2022/03/23 10:49:35;;;;;;;5.80;3.00;;;;;;;8.66;33.00;95914.09;5030237;28;20036;-72
2022/03/23 10:52:14;;;;;;;4.63;3.00;;;;;;;8.64;33.70;95891.78;5031658;28;20041;-73
2022/03/23 10:55:00;;;;;;;7.75;3.63;;;;;;;8.78;35.31;95897.00;5030431;28;20539;-72
2022/03/23 10:57:52;;;;;;;9.43;3.47;;;;;;;8.93;35.71;95903.03;5029969;28;20045;-72
2022/03/23 11:00:30;;;;;;;6.68;3.92;;;;;;;8.97;35.33;95907.13;5030511;28;20096;-72
2022/03/23 11:02:56;;;;;;;6.65;3.70;;;;;;;8.91;35.64;95889.31;5030322;28;20028;-72
2022/03/23 11:05:35;;;;;;;7.57;3.35;;;;;;;8.97;34.91;95891.56;5030199;28;20112;-72
2022/03/23 11:08:13;;;;;;;8.68;3.97;;;;;;;9.06;35.46;95887.59;5030080;28;20029;-73
2022/03/23 11:16:24;;;;;;;7.80;3.80;;;;;;;9.52;34.18;95877.84;5030643;28;20036;-72
2022/03/23 11:18:56;;;;;;;6.43;3.92;;;;;;;9.54;33.38;95882.94;5030074;28;20053;-72
2022/03/23 11:21:22;;;;;;;9.02;4.13;;;;;;;9.39;33.09;95874.34;5030137;28;20109;-73
2022/03/23 11:23:47;;;;;;;6.70;3.95;;;;;;;9.52;33.42;95874.41;5031143;28;20026;-72
2022/03/23 11:26:13;;;;;;;7.70;4.45;;;;;;;9.59;33.97;95873.94;4997156;28;20083;-73
2022/03/23 11:28:40;;;;;;;6.50;3.22;;;;;;;9.69;31.48;95875.97;5031281;28;20037;-72
2022/03/23 11:31:08;;;;;;;8.60;4.22;;;;;;;9.59;32.52;95873.13;4997231;28;20026;-72
2022/03/23 11:33:34;;;;;;;11.05;4.40;;;;;;;9.59;31.74;95868.75;5029741;28;20038;-72
2022/03/23 11:36:00;;;;;;;5.90;3.40;;;;;;;9.53;31.79;95863.13;5013499;28;20079;-72
2022/03/23 11:38:26;;;;;;;7.63;3.50;;;;;;;9.43;33.18;95852.47;5029771;28;20117;-73
2022/03/23 11:40:52;;;;;;;7.88;3.78;;;;;;;9.34;32.81;95851.28;5029819;28;20025;-72
2022/03/23 11:43:19;;;;;;;9.10;4.00;;;;;;;9.37;33.02;95842.50;5029694;28;20033;-72
2022/03/23 11:45:46;;;;;;;6.90;4.22;;;;;;;9.41;33.14;95838.75;5013383;28;20064;-73
2022/03/23 11:48:20;;;;;;;6.97;3.50;;;;;;;9.51;33.41;95849.41;5012974;28;20037;-72
2022/03/23 11:50:48;;;;;;;9.80;3.50;;;;;;;9.60;32.59;95839.28;5031061;28;20033;-73
2022/03/23 11:53:40;;;;;;;9.70;4.15;;;;;;;9.66;32.60;95835.47;5012504;28;20076;-72